Аэропорт: Домодедово. Москва

ICAO: UUDD

METAR:
2019-12-12 11:00:00
UUDD 121100Z 18004MPS 8000 OVC005 02/00 Q1023 R88/190050 NOSIG
METAR:
2019-12-12 07:58:00
TAF UUDD 120758Z 1209/1315 17003G08MPS 6000 FEW004 BKN006 TX02/1212Z TNM01/1303Z TEMPO 1209/1212 3100 -SN BR OVC003 PROB40 TEMPO 1221/1305 -FZDZ OVC002